Time;durP1;ratioP1;P1;durP2;ratioP2;P2;SDS_P1;SDS_P2;PMS_P1;PMS_P2;Temp;Humidity;BMP_temperature;BMP_pressure;BME280_temperature;BME280_humidity;BME280_pressure;Samples;Min_cycle;Max_cycle;Signal;HPM_P1;HPM_P2
2022/06/04 08:09:39;;;;;;;14.73;5.43;;;;;;;;;;5122097;27;20696;-71
2022/06/04 08:12:05;;;;;;;15.40;5.32;;;;;;;;;;5099304;28;20040;-72
2022/06/04 08:14:32;;;;;;;18.38;5.82;;;;;;;;;;5110494;28;20489;-71
2022/06/04 08:16:59;;;;;;;15.00;5.38;;;;;;;;;;5112317;28;20044;-72
2022/06/04 08:19:26;;;;;;;16.50;5.75;;;;;;;;;;5099025;28;20044;-71
2022/06/04 08:21:52;;;;;;;15.40;5.03;;;;;;;;;;5071169;28;20070;-71
2022/06/04 08:24:20;;;;;;;16.50;5.50;;;;;;;;;;5054348;28;20427;-71
2022/06/04 08:26:48;;;;;;;9.70;4.53;;;;;;;;;;5071158;28;20036;-72
2022/06/04 08:29:15;;;;;;;13.27;5.72;;;;;;;;;;5071083;28;20507;-72
2022/06/04 08:31:42;;;;;;;19.92;5.75;;;;;;;;;;5071167;28;20519;-72
2022/06/04 08:34:08;;;;;;;9.10;4.57;;;;;;;;;;5087715;28;20040;-72
2022/06/04 08:36:34;;;;;;;15.43;5.43;;;;;;;;;;5071354;28;20064;-72
2022/06/04 08:39:01;;;;;;;13.05;4.93;;;;;;;;;;5070140;28;20048;-72
2022/06/04 08:41:38;;;;;;;13.80;5.25;;;;;;;;;;5090582;28;20116;-71
2022/06/04 08:44:04;;;;;;;14.35;5.00;;;;;;;;;;5096772;28;20589;-72
2022/06/04 08:46:47;;;;;;;15.02;5.07;;;;;;;;;;5070465;28;20124;-72
2022/06/04 08:49:14;;;;;;;20.98;5.75;;;;;;;;;;5071418;28;20071;-72
2022/06/04 08:51:41;;;;;;;13.50;5.20;;;;;;;;;;5089454;28;20037;-72
2022/06/04 09:00:07;;;;;;;13.50;5.22;;;;;;;;;;5093188;28;20154;-72
2022/06/04 09:02:45;;;;;;;15.32;5.22;;;;;;;;;;5066992;28;20040;-71
2022/06/04 09:05:24;;;;;;;18.63;5.00;;;;;;;;;;5080416;28;20051;-71
2022/06/04 09:07:52;;;;;;;15.93;4.78;;;;;;;;;;5085167;28;20515;-72
2022/06/04 09:10:29;;;;;;;11.88;4.70;;;;;;;;;;5070530;28;20043;-72
2022/06/04 09:12:59;;;;;;;19.08;5.32;;;;;;;;;;5068947;28;20506;-73
2022/06/04 09:15:51;;;;;;;16.45;5.25;;;;;;;;;;5065283;28;20041;-73
2022/06/04 09:18:36;;;;;;;17.98;5.57;;;;;;;;;;5084375;28;20059;-73
2022/06/04 09:21:04;;;;;;;11.63;4.82;;;;;;;;;;5076022;28;20494;-73
2022/06/04 09:23:36;;;;;;;17.10;5.05;;;;;;;;;;5059900;28;20132;-73
2022/06/04 09:26:27;;;;;;;14.13;4.70;;;;;;;;;;5059896;28;20081;-73
2022/06/04 09:29:11;;;;;;;18.13;5.47;;;;;;;;;;5059053;28;20053;-73
2022/06/04 09:31:50;;;;;;;17.27;5.57;;;;;;;;;;5037034;28;20124;-72
2022/06/04 09:34:16;;;;;;;12.27;5.35;;;;;;;;;;5076708;28;20036;-73
2022/06/04 09:36:45;;;;;;;12.77;4.50;;;;;;;;;;5076422;28;20037;-72
2022/06/04 09:39:34;;;;;;;17.42;5.13;;;;;;;;;;5076753;28;20036;-72
2022/06/04 09:42:05;;;;;;;14.00;4.80;;;;;;;;;;5073749;28;20071;-72
2022/06/04 09:44:33;;;;;;;11.52;4.68;;;;;;;;;;5057139;28;20041;-73
2022/06/04 09:47:12;;;;;;;15.35;4.93;;;;;;;;;;5056460;28;20522;-72
2022/06/04 09:49:39;;;;;;;11.70;4.78;;;;;;;;;;5056144;28;20045;-72
2022/06/04 09:52:15;;;;;;;17.90;5.00;;;;;;;;;;5056365;28;20041;-72
2022/06/04 09:54:42;;;;;;;11.15;4.95;;;;;;;;;;5036367;28;20076;-72
2022/06/04 09:57:24;;;;;;;14.98;4.38;;;;;;;;;;5036532;28;20511;-72
2022/06/04 09:59:55;;;;;;;11.57;4.95;;;;;;;;;;5036405;28;20052;-72
2022/06/04 10:02:21;;;;;;;19.38;7.18;;;;;;;;;;5037160;28;20116;-72
2022/06/04 10:04:58;;;;;;;11.55;5.13;;;;;;;;;;5037377;28;20038;-78
2022/06/04 10:07:32;;;;;;;18.15;5.20;;;;;;;;;;5018107;28;20484;-75
2022/06/04 10:10:00;;;;;;;11.75;5.07;;;;;;;;;;5067452;28;20041;-75
2022/06/04 10:15:26;;;;;;;14.18;5.75;;;;;;;;;;5055662;28;20079;-73
2022/06/04 10:18:04;;;;;;;12.50;5.13;;;;;;;;;;5049761;28;20075;-73
2022/06/04 10:20:31;;;;;;;16.10;5.05;;;;;;;;;;5034750;28;20041;-74
2022/06/04 10:22:57;;;;;;;16.98;5.07;;;;;;;;;;5051191;28;20466;-77
2022/06/04 10:25:34;;;;;;;14.75;4.50;;;;;;;;;;5075916;28;20051;-76
2022/06/04 10:28:10;;;;;;;13.30;4.55;;;;;;;;;;5069084;28;20403;-77
2022/06/04 10:30:50;;;;;;;11.10;4.85;;;;;;;;;;5069185;28;20045;-77
2022/06/04 10:33:38;;;;;;;12.27;4.53;;;;;;;;;;5055282;28;20044;-76
2022/06/04 10:36:11;;;;;;;12.93;5.13;;;;;;;;;;5073361;28;20055;-77
2022/06/04 10:38:51;;;;;;;20.17;5.25;;;;;;;;;;5052738;28;20079;-78
2022/06/04 10:41:26;;;;;;;12.90;4.70;;;;;;;;;;5060191;28;20032;-76
2022/06/04 10:44:14;;;;;;;14.95;4.65;;;;;;;;;;5074109;28;20050;-76
2022/06/04 10:46:58;;;;;;;12.93;5.15;;;;;;;;;;5074914;28;20050;-76
2022/06/04 10:49:36;;;;;;;16.25;4.90;;;;;;;;;;5073866;28;20064;-76
2022/06/04 10:52:05;;;;;;;18.25;4.53;;;;;;;;;;5057286;28;20044;-75
2022/06/04 10:54:45;;;;;;;22.10;5.45;;;;;;;;;;5075060;28;20068;-76
2022/06/04 10:57:11;;;;;;;14.75;4.65;;;;;;;;;;5075248;28;20055;-77
2022/06/04 10:59:41;;;;;;;14.52;4.85;;;;;;;;;;5075170;28;20111;-77
2022/06/04 11:02:21;;;;;;;10.75;4.15;;;;;;;;;;5075084;28;20044;-77
2022/06/04 11:04:50;;;;;;;12.15;4.57;;;;;;;;;;5074433;28;20051;-77
2022/06/04 11:07:19;;;;;;;17.02;5.70;;;;;;;;;;5075049;28;20039;-78
2022/06/04 11:09:46;;;;;;;15.48;4.80;;;;;;;;;;5074856;28;20040;-77
2022/06/04 11:12:32;;;;;;;15.45;4.50;;;;;;;;;;5079181;28;20039;-77
2022/06/04 11:15:03;;;;;;;18.10;5.50;;;;;;;;;;5082755;28;20044;-77
2022/06/04 11:17:29;;;;;;;;;;;;;;;;;;5067434;28;20045;-76
2022/06/04 11:19:55;;;;;;;13.60;4.45;;;;;;;;;;5071651;28;19982;-74
2022/06/04 11:22:31;;;;;;;16.98;4.72;;;;;;;;;;5056053;28;20044;-74
2022/06/04 11:25:02;;;;;;;19.08;4.72;;;;;;;;;;5071728;28;20128;-75
2022/06/04 11:27:37;;;;;;;14.25;4.40;;;;;;;;;;5064581;28;20764;-75
2022/06/04 11:30:07;;;;;;;11.85;4.45;;;;;;;;;;5031490;28;20037;-73
2022/06/04 11:32:33;;;;;;;18.75;4.45;;;;;;;;;;5052358;28;20043;-73
2022/06/04 11:35:03;;;;;;;23.20;4.68;;;;;;;;;;5049475;28;20036;-74
2022/06/04 11:37:48;;;;;;;14.90;4.80;;;;;;;;;;5068535;28;20511;-76
2022/06/04 11:40:22;;;;;;;13.40;4.55;;;;;;;;;;5026760;28;20067;-74
2022/06/04 11:43:02;;;;;;;16.20;4.10;;;;;;;;;;5051936;28;20045;-75
2022/06/04 11:45:42;;;;;;;14.55;4.35;;;;;;;;;;5053084;28;20136;-74
2022/06/04 11:48:14;;;;;;;11.75;4.65;;;;;;;;;;5041124;28;20496;-75
2022/06/04 11:50:50;;;;;;;16.27;4.38;;;;;;;;;;5034639;28;20073;-75
2022/06/04 11:53:30;;;;;;;14.07;5.10;;;;;;;;;;5034806;28;20112;-74
2022/06/04 11:55:59;;;;;;;16.55;4.53;;;;;;;;;;5035666;28;20076;-75
2022/06/04 11:58:35;;;;;;;12.60;4.07;;;;;;;;;;5051347;28;20045;-75
2022/06/04 12:01:03;;;;;;;15.60;4.53;;;;;;;;;;5074243;28;20040;-74
2022/06/04 12:03:36;;;;;;;17.67;4.43;;;;;;;;;;5056384;28;20044;-75
2022/06/04 12:06:19;;;;;;;18.27;5.03;;;;;;;;;;5055964;28;20041;-76
2022/06/04 12:09:09;;;;;;;16.60;4.78;;;;;;;;;;5074129;28;20078;-75
2022/06/04 12:11:38;;;;;;;14.75;4.90;;;;;;;;;;5067947;28;20061;-74
2022/06/04 12:14:21;;;;;;;14.93;5.03;;;;;;;;;;5036341;28;20041;-74
2022/06/04 12:16:52;;;;;;;17.40;4.70;;;;;;;;;;5037016;28;20071;-75
2022/06/04 12:25:02;;;;;;;14.25;4.22;;;;;;;;;;5033695;28;20068;-73
2022/06/04 12:27:30;;;;;;;11.93;3.78;;;;;;;;;;5041816;28;20072;-74
2022/06/04 12:29:58;;;;;;;14.70;4.10;;;;;;;;;;5049213;28;20041;-75
2022/06/04 12:32:32;;;;;;;19.77;4.38;;;;;;;;;;5052372;28;20037;-74
2022/06/04 12:35:22;;;;;;;17.10;5.20;;;;;;;;;;5052833;28;20044;-74
2022/06/04 12:37:56;;;;;;;13.27;4.13;;;;;;;;;;5036171;28;20511;-74
2022/06/04 12:40:44;;;;;;;13.52;4.22;;;;;;;;;;5036613;28;20394;-74
2022/06/04 12:43:18;;;;;;;12.85;4.10;;;;;;;;;;5054093;28;20051;-76
2022/06/04 12:45:52;;;;;;;15.90;4.78;;;;;;;;;;5035646;28;20033;-75
2022/06/04 12:48:29;;;;;;;13.32;4.13;;;;;;;;;;5053572;28;20052;-75
2022/06/04 12:51:14;;;;;;;16.13;4.38;;;;;;;;;;5055528;28;20041;-76
2022/06/04 12:54:07;;;;;;;17.55;4.55;;;;;;;;;;5073880;28;20045;-76
2022/06/04 12:56:34;;;;;;;13.60;4.22;;;;;;;;;;5055007;28;20048;-76
2022/06/04 12:59:03;;;;;;;15.27;4.13;;;;;;;;;;5077160;28;20044;-77
2022/06/04 13:01:32;;;;;;;14.75;4.65;;;;;;;;;;5059166;28;20044;-76
2022/06/04 13:04:04;;;;;;;14.73;4.63;;;;;;;;;;5077582;28;20040;-76
2022/06/04 13:06:33;;;;;;;16.25;4.60;;;;;;;;;;5077418;28;20052;-75
2022/06/04 13:09:03;;;;;;;16.58;3.90;;;;;;;;;;5077102;28;20076;-76
2022/06/04 13:11:54;;;;;;;19.55;4.25;;;;;;;;;;5058569;28;20105;-75
2022/06/04 13:14:29;;;;;;;17.75;4.50;;;;;;;;;;5050920;28;20083;-76
2022/06/04 13:16:57;;;;;;;15.55;3.83;;;;;;;;;;5076896;28;20042;-77
2022/06/04 13:19:37;;;;;;;20.67;4.75;;;;;;;;;;5061144;28;20156;-77
2022/06/04 13:22:03;;;;;;;;;;;;;;;;;;5037256;28;20076;-77
2022/06/04 13:24:31;;;;;;;16.67;4.15;;;;;;;;;;5018595;28;19913;-76
2022/06/04 13:26:59;;;;;;;18.30;4.15;;;;;;;;;;5043397;28;20059;-75
2022/06/04 13:29:28;;;;;;;14.57;3.67;;;;;;;;;;5038533;28;20098;-74
2022/06/04 13:32:01;;;;;;;13.57;4.35;;;;;;;;;;5018628;28;20486;-76
2022/06/04 13:34:29;;;;;;;14.18;4.13;;;;;;;;;;5034836;28;20033;-76
2022/06/04 13:36:59;;;;;;;15.43;3.97;;;;;;;;;;5033878;28;20033;-76
2022/06/04 13:39:26;;;;;;;16.70;3.90;;;;;;;;;;5035070;28;20037;-78
2022/06/04 13:42:02;;;;;;;19.20;4.15;;;;;;;;;;5034968;28;20033;-76
2022/06/04 13:44:38;;;;;;;17.52;4.35;;;;;;;;;;5036217;28;20052;-76
2022/06/04 13:47:14;;;;;;;14.32;4.47;;;;;;;;;;5038533;28;20044;-76
2022/06/04 13:49:41;;;;;;;15.57;4.28;;;;;;;;;;5044037;28;20057;-76
2022/06/04 13:52:10;;;;;;;20.30;4.75;;;;;;;;;;5035358;28;20041;-76
2022/06/04 13:54:38;;;;;;;15.52;4.35;;;;;;;;;;5034759;28;20128;-76
2022/06/04 13:57:14;;;;;;;17.02;4.15;;;;;;;;;;5035154;28;20425;-76
2022/06/04 13:59:45;;;;;;;18.55;5.10;;;;;;;;;;5036267;28;20049;-76
2022/06/04 14:02:14;;;;;;;17.38;4.25;;;;;;;;;;5035824;28;20037;-76
2022/06/04 14:07:32;;;;;;;11.27;3.90;;;;;;;;;;5035498;28;20060;-76
2022/06/04 14:09:58;;;;;;;19.83;4.40;;;;;;;;;;5036457;28;20491;-76
2022/06/04 14:12:33;;;;;;;10.88;4.05;;;;;;;;;;5035549;28;20034;-76
2022/06/04 14:14:59;;;;;;;15.45;4.18;;;;;;;;;;5035481;28;20042;-76
2022/06/04 14:17:28;;;;;;;22.17;5.47;;;;;;;;;;5034421;28;20212;-76
2022/06/04 14:20:02;;;;;;;16.13;5.10;;;;;;;;;;5033985;28;20415;-76
2022/06/04 14:22:40;;;;;;;13.40;3.80;;;;;;;;;;5002056;28;20073;-76
2022/06/04 14:25:09;;;;;;;14.15;4.10;;;;;;;;;;5036458;28;20042;-76
2022/06/04 14:27:48;;;;;;;17.42;4.43;;;;;;;;;;5036079;28;20128;-76
2022/06/04 14:30:26;;;;;;;14.18;4.50;;;;;;;;;;5036245;28;20045;-76
2022/06/04 14:32:54;;;;;;;12.73;4.50;;;;;;;;;;5018280;28;20170;-76
2022/06/04 14:35:23;;;;;;;15.18;3.95;;;;;;;;;;5036212;28;20053;-76
2022/06/04 14:37:50;;;;;;;17.65;3.72;;;;;;;;;;5035999;28;20037;-76
2022/06/04 14:40:17;;;;;;;17.30;4.15;;;;;;;;;;5035877;28;20111;-76
2022/06/04 14:42:56;;;;;;;20.88;4.38;;;;;;;;;;5018047;28;20088;-76
2022/06/04 14:45:22;;;;;;;17.50;4.30;;;;;;;;;;5035810;28;20038;-76
2022/06/04 14:47:51;;;;;;;21.40;4.80;;;;;;;;;;5035934;28;20098;-76
2022/06/04 14:50:23;;;;;;;12.85;4.18;;;;;;;;;;5035418;28;20041;-76
2022/06/04 14:52:51;;;;;;;18.17;4.50;;;;;;;;;;5017864;28;20037;-76
2022/06/04 14:55:19;;;;;;;10.93;3.75;;;;;;;;;;5035772;28;20099;-77
2022/06/04 14:57:48;;;;;;;16.67;4.40;;;;;;;;;;5035818;28;20475;-77
2022/06/04 15:00:23;;;;;;;18.65;4.20;;;;;;;;;;5035187;28;20048;-76
2022/06/04 15:03:07;;;;;;;15.52;4.30;;;;;;;;;;5018311;28;20376;-76
2022/06/04 15:05:52;;;;;;;15.85;4.50;;;;;;;;;;5035472;28;20112;-76
2022/06/04 15:08:37;;;;;;;12.02;4.30;;;;;;;;;;5034927;28;20048;-76
2022/06/04 15:11:03;;;;;;;15.18;4.72;;;;;;;;;;5035275;28;20041;-76
2022/06/04 15:13:43;;;;;;;14.93;4.00;;;;;;;;;;5035262;28;20515;-76
2022/06/04 15:16:12;;;;;;;18.27;4.43;;;;;;;;;;5034907;28;20048;-76
2022/06/04 15:18:41;;;;;;;18.98;4.57;;;;;;;;;;5034676;28;20048;-76
2022/06/04 15:21:21;;;;;;;14.73;4.60;;;;;;;;;;5035207;28;20037;-76
2022/06/04 15:24:06;;;;;;;17.10;3.92;;;;;;;;;;5035665;28;20049;-78
2022/06/04 15:26:52;;;;;;;14.30;3.90;;;;;;;;;;5034868;28;20045;-77
2022/06/04 15:35:27;;;;;;;16.48;4.32;;;;;;;;;;5034415;28;20032;-78
2022/06/04 15:38:02;;;;;;;17.27;4.60;;;;;;;;;;5035090;28;20045;-78
2022/06/04 15:40:28;;;;;;;13.40;4.72;;;;;;;;;;5035035;28;20045;-78
2022/06/04 15:42:58;;;;;;;14.98;3.90;;;;;;;;;;5034773;28;20046;-78
2022/06/04 15:45:37;;;;;;;15.23;4.60;;;;;;;;;;5034865;28;20496;-78
2022/06/04 15:48:04;;;;;;;12.43;3.88;;;;;;;;;;5016913;28;20073;-78
2022/06/04 15:56:25;;;;;;;15.50;3.70;;;;;;;;;;5034172;28;20535;-77
2022/06/04 15:58:51;;;;;;;13.52;4.03;;;;;;;;;;5027972;28;20569;-78
2022/06/04 16:01:32;;;;;;;17.77;4.22;;;;;;;;;;5052647;28;20045;-77
2022/06/04 16:04:11;;;;;;;15.23;3.92;;;;;;;;;;5044295;28;20138;-78
2022/06/04 16:06:39;;;;;;;18.17;4.32;;;;;;;;;;5034955;28;20052;-77
2022/06/04 16:09:17;;;;;;;14.40;3.85;;;;;;;;;;5033889;28;20052;-78
2022/06/04 16:12:05;;;;;;;18.10;4.60;;;;;;;;;;5032822;28;20053;-75
2022/06/04 16:14:34;;;;;;;15.90;4.32;;;;;;;;;;5052779;28;20051;-75
2022/06/04 16:17:07;;;;;;;20.20;4.70;;;;;;;;;;5047207;28;20567;-75
2022/06/04 16:19:44;;;;;;;16.30;4.47;;;;;;;;;;5045154;28;20048;-75
2022/06/04 16:22:10;;;;;;;15.52;5.00;;;;;;;;;;5057054;28;20043;-75
2022/06/04 16:24:45;;;;;;;12.85;4.22;;;;;;;;;;5063383;28;20041;-76
2022/06/04 16:27:23;;;;;;;13.82;4.30;;;;;;;;;;5037469;28;20068;-77
2022/06/04 16:29:49;;;;;;;13.23;4.32;;;;;;;;;;5036129;28;20076;-76
2022/06/04 16:32:15;;;;;;;16.48;4.10;;;;;;;;;;5037971;28;20037;-76
2022/06/04 16:34:47;;;;;;;14.23;4.63;;;;;;;;;;5055758;28;20124;-76
2022/06/04 16:37:32;;;;;;;10.65;4.50;;;;;;;;;;5057607;28;20033;-76
2022/06/04 16:39:59;;;;;;;18.65;4.18;;;;;;;;;;5030350;28;20460;-76
2022/06/04 16:42:43;;;;;;;15.98;5.63;;;;;;;;;;5037115;28;20092;-76
2022/06/04 16:45:17;;;;;;;12.68;3.83;;;;;;;;;;5035973;28;20049;-76
2022/06/04 16:47:52;;;;;;;18.08;4.45;;;;;;;;;;5034917;28;20425;-76
2022/06/04 16:50:19;;;;;;;18.38;5.18;;;;;;;;;;5036877;28;20037;-76
2022/06/04 16:52:49;;;;;;;15.25;3.75;;;;;;;;;;5037473;28;20029;-76
2022/06/04 16:55:17;;;;;;;17.17;4.80;;;;;;;;;;5038295;28;20049;-76
2022/06/04 16:57:44;;;;;;;13.32;3.78;;;;;;;;;;5037410;28;20040;-76
2022/06/04 17:00:12;;;;;;;17.85;5.13;;;;;;;;;;5037039;28;20120;-76
2022/06/04 17:02:46;;;;;;;15.85;4.40;;;;;;;;;;5038331;28;20048;-76
2022/06/04 17:05:19;;;;;;;18.23;4.78;;;;;;;;;;5036990;28;20045;-76
2022/06/04 17:08:04;;;;;;;17.35;4.22;;;;;;;;;;5036911;28;20054;-77
2022/06/04 17:10:37;;;;;;;11.32;4.38;;;;;;;;;;5055006;28;20061;-77
2022/06/04 17:13:04;;;;;;;13.30;4.63;;;;;;;;;;5057006;28;20496;-77
2022/06/04 17:15:46;;;;;;;15.68;4.70;;;;;;;;;;5056809;28;20045;-76
2022/06/04 17:18:28;;;;;;;15.23;4.22;;;;;;;;;;5056887;28;20041;-77
2022/06/04 17:21:03;;;;;;;15.50;5.07;;;;;;;;;;5056807;28;20033;-77
2022/06/04 17:23:33;;;;;;;15.02;4.63;;;;;;;;;;5056915;28;20047;-77
2022/06/04 17:25:59;;;;;;;10.55;3.97;;;;;;;;;;5057214;28;20052;-77
2022/06/04 17:28:37;;;;;;;16.90;4.68;;;;;;;;;;5053533;28;20583;-76
2022/06/04 17:31:13;;;;;;;16.40;4.43;;;;;;;;;;5051589;28;20060;-77
2022/06/04 17:33:39;;;;;;;13.70;4.57;;;;;;;;;;5056691;28;20059;-76
2022/06/04 17:36:05;;;;;;;20.35;4.40;;;;;;;;;;5057221;28;20091;-76
2022/06/04 17:38:46;;;;;;;18.75;4.95;;;;;;;;;;5036617;28;20041;-74
2022/06/04 17:41:17;;;;;;;11.43;4.22;;;;;;;;;;5055889;28;20491;-74
2022/06/04 17:43:44;;;;;;;16.77;4.97;;;;;;;;;;5057069;28;20044;-74
2022/06/04 17:46:10;;;;;;;14.20;4.43;;;;;;;;;;5069868;28;20044;-72
2022/06/04 17:48:36;;;;;;;14.27;4.38;;;;;;;;;;5073107;28;20102;-74
2022/06/04 17:51:03;;;;;;;13.73;4.40;;;;;;;;;;5060518;28;20045;-72
2022/06/04 17:53:29;;;;;;;19.08;4.38;;;;;;;;;;5036966;28;20042;-72
2022/06/04 17:55:55;;;;;;;15.88;3.85;;;;;;;;;;5066632;28;20044;-73
2022/06/04 17:58:22;;;;;;;15.32;4.50;;;;;;;;;;5072790;28;20102;-73
2022/06/04 18:00:48;;;;;;;16.13;3.67;;;;;;;;;;5076183;28;20130;-72
2022/06/04 18:03:17;;;;;;;13.55;3.65;;;;;;;;;;5075386;28;20550;-73
2022/06/04 18:05:45;;;;;;;17.60;4.40;;;;;;;;;;5066084;28;20402;-71
2022/06/04 18:08:11;;;;;;;14.13;3.80;;;;;;;;;;5073824;28;20047;-71
2022/06/04 18:10:37;;;;;;;14.38;4.10;;;;;;;;;;5075226;28;20044;-71
2022/06/04 18:13:04;;;;;;;15.35;3.97;;;;;;;;;;5066127;28;20545;-71
2022/06/04 18:15:30;;;;;;;20.30;4.45;;;;;;;;;;5055898;28;20040;-72
2022/06/04 18:17:56;;;;;;;13.73;3.85;;;;;;;;;;5055933;28;20052;-72
2022/06/04 18:20:23;;;;;;;22.23;4.22;;;;;;;;;;5055862;28;20091;-72
2022/06/04 18:22:49;;;;;;;16.80;3.95;;;;;;;;;;5054992;28;20040;-72
2022/06/04 18:25:16;;;;;;;15.68;4.10;;;;;;;;;;5056467;28;20045;-73
2022/06/04 18:27:46;;;;;;;14.68;4.25;;;;;;;;;;5055543;28;20120;-72
2022/06/04 18:30:16;;;;;;;17.23;4.28;;;;;;;;;;5037940;28;20075;-72
2022/06/04 18:32:43;;;;;;;21.10;4.53;;;;;;;;;;5055417;28;20045;-72
2022/06/04 18:35:10;;;;;;;17.55;4.05;;;;;;;;;;5055619;28;20052;-72
2022/06/04 18:37:37;;;;;;;19.70;4.18;;;;;;;;;;5035619;28;20033;-72
2022/06/04 18:40:04;;;;;;;17.58;4.40;;;;;;;;;;5035515;28;20041;-72
2022/06/04 18:56:13;;;;;;;16.30;4.95;;;;;;;;;;5034250;28;20040;-72
2022/06/04 18:58:40;;;;;;;13.50;4.88;;;;;;;;;;5033108;28;20068;-74
2022/06/04 19:01:06;;;;;;;18.50;4.70;;;;;;;;;;5032782;28;20080;-70
2022/06/04 19:03:33;;;;;;;19.70;5.15;;;;;;;;;;5049513;28;20048;-70
2022/06/04 19:06:00;;;;;;;21.52;6.18;;;;;;;;;;5054904;28;20119;-70
2022/06/04 19:08:26;;;;;;;19.10;4.78;;;;;;;;;;5064867;28;20063;-69
2022/06/04 19:13:41;;;;;;;18.00;4.78;;;;;;;;;;5074397;28;20047;-69
2022/06/04 19:16:09;;;;;;;11.15;4.28;;;;;;;;;;5075230;28;20116;-69
2022/06/04 19:18:36;;;;;;;20.40;4.47;;;;;;;;;;5075036;28;20094;-69
2022/06/04 19:26:33;;;;;;;22.55;4.85;;;;;;;;;;5058905;28;20116;-70
2022/06/04 19:29:00;;;;;;;20.75;4.50;;;;;;;;;;5071527;28;20048;-72
2022/06/04 19:31:26;;;;;;;16.05;4.15;;;;;;;;;;5071883;28;20049;-73
2022/06/04 19:33:52;;;;;;;14.50;5.03;;;;;;;;;;5073827;28;20051;-73
2022/06/04 19:36:18;;;;;;;15.63;4.55;;;;;;;;;;5074360;28;20045;-72
2022/06/04 19:38:44;;;;;;;21.73;4.70;;;;;;;;;;5074681;28;20093;-72
2022/06/04 19:41:10;;;;;;;21.33;5.25;;;;;;;;;;5074607;28;20063;-72
2022/06/04 19:43:37;;;;;;;17.58;5.40;;;;;;;;;;5073559;28;20040;-72
2022/06/04 19:46:03;;;;;;;17.73;6.30;;;;;;;;;;5035054;28;20553;-71
2022/06/04 19:48:30;;;;;;;12.95;5.07;;;;;;;;;;5034001;28;20049;-72
2022/06/04 19:50:56;;;;;;;14.10;6.25;;;;;;;;;;5034348;28;20511;-72
2022/06/04 19:56:12;;;;;;;15.68;7.60;;;;;;;;;;5062352;28;20066;-72
2022/06/04 19:58:38;;;;;;;22.08;7.25;;;;;;;;;;5074048;28;20525;-72
2022/06/04 20:01:05;;;;;;;20.40;5.57;;;;;;;;;;5073328;28;20542;-72
2022/06/04 20:03:31;;;;;;;19.35;5.57;;;;;;;;;;5054260;28;20086;-72
2022/06/04 20:05:58;;;;;;;15.73;5.80;;;;;;;;;;5029461;28;20040;-72
2022/06/04 20:08:24;;;;;;;20.15;5.78;;;;;;;;;;5055162;28;20045;-72
2022/06/04 20:10:50;;;;;;;16.15;5.35;;;;;;;;;;5059611;28;20067;-72
2022/06/04 20:13:17;;;;;;;16.20;6.00;;;;;;;;;;5060530;28;20042;-71
2022/06/04 20:15:43;;;;;;;13.50;5.15;;;;;;;;;;5033999;28;20033;-71
2022/06/04 20:18:09;;;;;;;15.35;5.30;;;;;;;;;;5032650;28;20136;-71
2022/06/04 20:20:36;;;;;;;15.02;4.65;;;;;;;;;;5032768;28;20045;-71
2022/06/04 20:23:04;;;;;;;11.45;4.90;;;;;;;;;;5033766;28;20037;-71
2022/06/04 20:25:33;;;;;;;16.48;4.75;;;;;;;;;;5033613;28;20069;-71
2022/06/04 20:28:01;;;;;;;12.43;4.80;;;;;;;;;;5034433;28;20049;-72
2022/06/04 20:30:27;;;;;;;15.50;5.93;;;;;;;;;;5034250;28;20038;-71
2022/06/04 20:32:54;;;;;;;18.25;5.38;;;;;;;;;;5034159;28;20499;-71
2022/06/04 20:35:21;;;;;;;16.77;5.30;;;;;;;;;;5033988;28;20047;-71
2022/06/04 20:37:48;;;;;;;19.45;4.90;;;;;;;;;;5034021;28;20558;-72
2022/06/04 20:40:16;;;;;;;10.77;4.97;;;;;;;;;;5033927;28;20036;-71
2022/06/04 20:42:42;;;;;;;12.30;5.32;;;;;;;;;;5034431;28;20041;-71
2022/06/04 20:45:10;;;;;;;14.77;4.85;;;;;;;;;;5035433;28;20047;-72
2022/06/04 20:47:37;;;;;;;9.52;4.97;;;;;;;;;;5016120;28;20069;-71
2022/06/04 20:50:03;;;;;;;13.50;5.38;;;;;;;;;;5033648;28;20037;-70
2022/06/04 20:52:29;;;;;;;18.08;5.10;;;;;;;;;;5033813;28;20480;-71
2022/06/04 20:54:55;;;;;;;13.20;5.35;;;;;;;;;;5034058;28;20045;-71
2022/06/04 20:57:22;;;;;;;12.98;5.22;;;;;;;;;;5033958;28;20052;-71
2022/06/04 20:59:50;;;;;;;20.13;6.32;;;;;;;;;;5033543;28;20045;-71
2022/06/04 21:02:17;;;;;;;12.80;5.68;;;;;;;;;;5033851;28;20121;-71
2022/06/04 21:04:43;;;;;;;16.48;6.13;;;;;;;;;;5034067;28;20504;-71
2022/06/04 21:07:10;;;;;;;16.15;5.35;;;;;;;;;;5034123;28;20072;-74
2022/06/04 21:09:36;;;;;;;32.58;14.73;;;;;;;;;;5046227;28;20138;-69
2022/06/04 21:12:02;;;;;;;20.73;8.52;;;;;;;;;;5033587;28;20538;-70
2022/06/04 21:14:28;;;;;;;13.63;6.07;;;;;;;;;;5033826;28;20048;-70
2022/06/04 21:16:54;;;;;;;15.88;5.50;;;;;;;;;;5036289;28;20041;-70
2022/06/04 21:19:21;;;;;;;21.63;12.85;;;;;;;;;;5037349;28;20060;-70
2022/06/04 21:21:47;;;;;;;17.13;5.55;;;;;;;;;;5036823;28;20066;-70
2022/06/04 21:24:13;;;;;;;14.75;5.00;;;;;;;;;;5046974;28;20131;-71
2022/06/04 21:26:41;;;;;;;10.60;5.43;;;;;;;;;;5057293;28;20045;-71
2022/06/04 21:29:08;;;;;;;13.02;5.20;;;;;;;;;;5057067;28;20060;-70
2022/06/04 21:31:35;;;;;;;14.45;5.40;;;;;;;;;;5056837;28;20504;-70
2022/06/04 21:34:02;;;;;;;11.82;4.72;;;;;;;;;;5056267;28;20036;-70
2022/06/04 21:39:15;;;;;;;16.40;5.05;;;;;;;;;;5056455;28;20411;-71
2022/06/04 21:41:41;;;;;;;13.00;5.32;;;;;;;;;;5056419;28;20128;-70
2022/06/04 21:44:07;;;;;;;15.05;4.95;;;;;;;;;;5070627;28;20051;-71
2022/06/04 21:46:34;;;;;;;13.50;5.68;;;;;;;;;;5076470;28;20505;-70
2022/06/04 21:49:01;;;;;;;13.27;4.72;;;;;;;;;;5075841;28;20056;-70
2022/06/04 21:51:28;;;;;;;10.55;5.00;;;;;;;;;;5076020;28;20032;-71
2022/06/04 21:53:54;;;;;;;12.82;5.20;;;;;;;;;;5076295;28;20044;-71
2022/06/04 21:56:20;;;;;;;17.50;5.53;;;;;;;;;;5076335;28;20446;-71
2022/06/04 21:58:47;;;;;;;18.17;6.50;;;;;;;;;;5076091;28;20048;-70
2022/06/04 22:01:36;;;;;;;16.48;6.32;;;;;;;;;;5076579;28;20047;-70
2022/06/04 22:04:02;;;;;;;13.20;5.38;;;;;;;;;;5047767;28;20090;-71
2022/06/04 22:06:29;;;;;;;20.08;6.07;;;;;;;;;;5076093;28;20041;-72
2022/06/04 22:08:55;;;;;;;11.65;6.07;;;;;;;;;;5075769;28;20055;-71
2022/06/04 22:11:22;;;;;;;14.25;5.97;;;;;;;;;;5074346;28;20128;-71
2022/06/04 22:13:50;;;;;;;15.10;5.80;;;;;;;;;;5054526;28;20044;-71
2022/06/04 22:16:17;;;;;;;17.00;5.90;;;;;;;;;;5063537;28;20037;-70
2022/06/04 22:18:43;;;;;;;13.90;4.95;;;;;;;;;;5054423;28;20110;-75
2022/06/04 22:21:14;;;;;;;11.77;5.45;;;;;;;;;;5055749;28;20033;-71
2022/06/04 22:23:41;;;;;;;11.35;5.07;;;;;;;;;;5038046;28;20124;-70
2022/06/04 22:26:08;;;;;;;12.98;5.30;;;;;;;;;;5035221;28;20037;-70
2022/06/04 22:28:34;;;;;;;16.05;5.72;;;;;;;;;;5037870;28;20186;-70
2022/06/04 22:31:00;;;;;;;16.13;5.80;;;;;;;;;;5055590;28;20395;-69
2022/06/04 22:33:27;;;;;;;10.80;5.05;;;;;;;;;;5055760;28;20044;-69
2022/06/04 22:35:53;;;;;;;15.15;6.15;;;;;;;;;;5059277;28;20041;-68
2022/06/04 22:38:20;;;;;;;13.82;5.72;;;;;;;;;;5058321;28;20078;-68
2022/06/04 22:40:47;;;;;;;19.48;5.70;;;;;;;;;;5069022;28;20055;-68
2022/06/04 22:43:14;;;;;;;13.85;6.53;;;;;;;;;;5073873;28;20040;-68
